KGLD/GLD METAR and TAF weather

Enter ICAO airport designator
Station Type Date Time Source
KGLD METAR 2019/10/15 08:53 UTC NOAA

KGLD 150853Z AUTO 35014G21KT 10SM CLR 07/M02 A3002 RMK AO2 SLP137 T00671022 53031 PWINO $


Station Type Date Time Source
KGLD Decoded METAR 2019/10/15 08:53 UTC NOAA

GOODLAND RENNER FIELD, KS, United States (KGLD) 39-22N 101-42W 1114M
Oct 15, 2019 - 04:53 AM EDT / 2019.10.15 0853 UTC
Wind: from the N (350 degrees) at 16 MPH (14 KT) gusting to 24 MPH (21 KT):0
Visibility: 10 mile(s):0
Sky conditions: clear
Temperature: 44.1 F (6.7 C)
Dew Point: 28.0 F (-2.2 C)
Relative Humidity: 52%
Pressure (altimeter): 30.02 in. Hg (1016 hPa)
Pressure tendency: 0.09 inches (3.1 hPa) higher than three hours ago
ob: KGLD 150853Z AUTO 35014G21KT 10SM CLR 07/M02 A3002 RMK AO2 SLP137 T00671022 53031 PWINO
cycle: 9

Station Type Date Time Source
KGLD TAF 2019/10/15 06:24 UTC NOAA

TAF KGLD 150520Z 1506/1606 VRB06KT P6SM SKC
FM150800 36017G26KT P6SM SKC
FM151500 36017KT P6SM SKC
FM160000 36008KT P6SM SKC

Example: see airport list